Time;durP1;ratioP1;P1;durP2;ratioP2;P2;SDS_P1;SDS_P2;PMS_P1;PMS_P2;Temp;Humidity;BMP_temperature;BMP_pressure;BME280_temperature;BME280_humidity;BME280_pressure;Samples;Min_cycle;Max_cycle;Signal;HPM_P1;HPM_P2
2021/06/30 00:00:09;;;;;;;8.07;4.88;;;16.00;99.90;;;;;;5050770;28;20080;-66
2021/06/30 00:02:36;;;;;;;9.90;4.63;;;16.00;99.90;;;;;;5051832;28;20581;-66
2021/06/30 00:05:03;;;;;;;11.10;4.78;;;16.10;99.90;;;;;;5053461;28;20080;-64
2021/06/30 00:07:32;;;;;;;9.27;4.78;;;16.10;99.90;;;;;;5051404;28;20446;-64
2021/06/30 00:09:59;;;;;;;7.28;4.45;;;16.10;99.90;;;;;;5053473;28;20088;-65
2021/06/30 00:12:26;;;;;;;11.43;5.35;;;16.20;99.90;;;;;;5053707;28;20052;-66
2021/06/30 00:14:55;;;;;;;8.05;4.40;;;16.20;99.90;;;;;;5052367;28;20137;-66
2021/06/30 00:17:23;;;;;;;10.23;5.47;;;16.10;99.90;;;;;;5049684;28;20059;-66
2021/06/30 00:19:50;;;;;;;12.60;4.70;;;16.10;99.90;;;;;;5051691;28;20040;-66
2021/06/30 00:22:17;;;;;;;6.93;4.35;;;16.00;99.90;;;;;;5051172;28;20135;-66
2021/06/30 00:24:45;;;;;;;10.07;4.50;;;16.00;99.90;;;;;;5052290;28;20048;-66
2021/06/30 00:27:12;;;;;;;7.45;3.95;;;16.10;99.90;;;;;;5053233;28;20139;-66
2021/06/30 00:29:39;;;;;;;7.28;4.18;;;16.00;99.90;;;;;;5052001;28;20113;-66
2021/06/30 00:32:07;;;;;;;10.85;4.88;;;16.00;99.90;;;;;;5052720;28;20087;-66
2021/06/30 00:34:34;;;;;;;8.10;4.40;;;15.90;99.90;;;;;;5052006;28;20046;-66
2021/06/30 00:37:01;;;;;;;8.20;5.70;;;16.00;99.90;;;;;;5051972;28;20136;-65
2021/06/30 00:39:28;;;;;;;6.68;4.28;;;15.90;99.90;;;;;;5049009;28;20087;-66
2021/06/30 00:41:57;;;;;;;8.02;4.85;;;16.10;99.90;;;;;;5047854;28;20048;-66
2021/06/30 00:44:24;;;;;;;8.75;5.20;;;15.90;99.90;;;;;;5049900;28;20095;-66
2021/06/30 00:46:51;;;;;;;10.15;5.45;;;15.90;99.90;;;;;;5050118;28;20136;-66
2021/06/30 00:49:18;;;;;;;10.80;6.10;;;15.90;99.90;;;;;;5049364;28;20052;-66
2021/06/30 00:51:45;;;;;;;12.30;5.95;;;15.90;99.90;;;;;;5054232;28;20159;-66
2021/06/30 00:54:12;;;;;;;10.07;6.20;;;15.90;99.90;;;;;;5053151;28;20052;-65
2021/06/30 00:56:40;;;;;;;10.02;6.10;;;15.90;99.90;;;;;;5051714;28;20087;-66
2021/06/30 00:59:12;;;;;;;10.05;6.47;;;16.00;99.90;;;;;;5051217;28;20131;-66
2021/06/30 01:01:40;;;;;;;13.93;7.00;;;16.10;99.90;;;;;;5052109;28;20079;-64
2021/06/30 01:04:08;;;;;;;16.23;6.40;;;16.00;99.90;;;;;;5052646;28;20072;-66
2021/06/30 01:06:35;;;;;;;11.27;6.35;;;16.00;99.90;;;;;;5052220;28;20122;-66
2021/06/30 01:09:04;;;;;;;12.13;6.63;;;16.10;99.90;;;;;;5050730;28;20255;-66
2021/06/30 01:11:31;;;;;;;12.07;7.30;;;16.10;99.90;;;;;;5049456;28;20048;-66
2021/06/30 01:13:58;;;;;;;12.38;7.20;;;16.00;99.90;;;;;;5051110;28;20071;-66
2021/06/30 01:16:27;;;;;;;17.52;7.47;;;16.00;99.90;;;;;;5051891;28;20071;-66
2021/06/30 01:18:54;;;;;;;15.95;7.13;;;16.10;99.90;;;;;;5048937;28;20044;-65
2021/06/30 01:21:21;;;;;;;9.43;6.50;;;16.10;99.90;;;;;;5050730;28;20129;-66
2021/06/30 01:23:49;;;;;;;10.18;6.80;;;16.00;99.90;;;;;;5052243;28;20044;-66
2021/06/30 01:26:17;;;;;;;20.15;8.20;;;16.00;99.90;;;;;;5051615;28;20528;-66
2021/06/30 01:28:44;;;;;;;13.95;7.18;;;16.00;99.90;;;;;;5049483;28;20047;-66
2021/06/30 01:31:12;;;;;;;11.68;7.03;;;16.00;99.90;;;;;;5050276;28;20063;-66
2021/06/30 01:33:39;;;;;;;11.18;7.38;;;16.00;99.90;;;;;;5051633;28;20169;-66
2021/06/30 01:36:06;;;;;;;15.48;6.90;;;16.00;99.90;;;;;;5049802;28;20085;-64
2021/06/30 01:38:33;;;;;;;13.25;7.07;;;16.10;99.90;;;;;;5049362;28;20054;-64
2021/06/30 01:41:02;;;;;;;10.35;7.10;;;16.10;99.90;;;;;;5051332;28;20136;-64
2021/06/30 01:43:29;;;;;;;12.70;6.88;;;16.10;99.90;;;;;;5050862;28;20048;-66
2021/06/30 01:45:58;;;;;;;16.13;6.93;;;16.10;99.90;;;;;;5049559;28;20611;-66
2021/06/30 01:48:25;;;;;;;14.00;6.88;;;16.10;99.90;;;;;;5049097;28;20056;-64
2021/06/30 01:50:52;;;;;;;11.05;7.07;;;16.10;99.90;;;;;;5051481;28;20076;-64
2021/06/30 01:53:20;;;;;;;14.20;7.07;;;16.00;99.90;;;;;;5049130;28;20140;-64
2021/06/30 01:55:47;;;;;;;9.88;6.68;;;16.00;99.90;;;;;;5051433;28;20044;-65
2021/06/30 01:58:18;;;;;;;13.48;6.95;;;16.00;99.90;;;;;;5047355;28;20112;-65
2021/06/30 02:00:45;;;;;;;14.55;6.95;;;16.00;99.90;;;;;;5050732;28;20121;-65
2021/06/30 02:03:12;;;;;;;12.07;6.97;;;16.00;99.90;;;;;;5046809;28;20139;-64
2021/06/30 02:05:40;;;;;;;12.63;7.78;;;16.10;99.90;;;;;;5051713;28;20079;-65
2021/06/30 02:08:07;;;;;;;14.95;7.50;;;16.10;99.90;;;;;;5049118;28;20385;-65
2021/06/30 02:10:34;;;;;;;9.73;7.03;;;16.10;99.90;;;;;;5050316;28;20513;-64
2021/06/30 02:13:01;;;;;;;13.75;7.70;;;16.00;99.90;;;;;;5051771;28;20117;-64
2021/06/30 02:15:32;;;;;;;10.00;7.20;;;16.10;99.90;;;;;;5048333;28;20447;-65
2021/06/30 02:18:01;;;;;;;9.48;6.95;;;16.00;99.90;;;;;;5048378;28;20040;-64
2021/06/30 02:20:29;;;;;;;13.60;7.07;;;15.90;99.90;;;;;;5051376;28;20509;-64
2021/06/30 02:22:58;;;;;;;13.05;8.07;;;15.90;99.90;;;;;;5048857;28;20080;-65
2021/06/30 02:25:27;;;;;;;13.95;7.20;;;15.80;99.90;;;;;;5048617;28;20048;-65
2021/06/30 02:27:54;;;;;;;10.90;6.88;;;15.80;99.90;;;;;;5047912;28;20052;-65
2021/06/30 02:30:24;;;;;;;12.13;6.85;;;15.90;99.90;;;;;;5050242;28;20076;-65
2021/06/30 02:32:52;;;;;;;10.10;7.40;;;15.90;99.90;;;;;;5049510;28;20553;-65
2021/06/30 02:35:22;;;;;;;8.95;6.65;;;16.00;99.90;;;;;;5049781;28;20526;-65
2021/06/30 02:37:50;;;;;;;15.00;7.60;;;16.10;99.90;;;;;;5048978;28;20135;-65
2021/06/30 02:40:19;;;;;;;12.65;7.20;;;16.30;99.90;;;;;;5051888;28;20079;-65
2021/06/30 02:42:47;;;;;;;10.00;6.57;;;16.40;99.90;;;;;;5049545;28;20133;-65
2021/06/30 02:45:16;;;;;;;11.80;7.28;;;16.30;99.90;;;;;;5050867;28;20528;-64
2021/06/30 02:47:44;;;;;;;10.57;7.18;;;16.30;99.90;;;;;;5048720;28;20563;-65
2021/06/30 02:50:15;;;;;;;10.82;7.20;;;16.30;99.90;;;;;;5050709;28;20094;-64
2021/06/30 02:52:44;;;;;;;10.50;7.07;;;16.10;99.90;;;;;;5054213;28;20051;-65
2021/06/30 02:55:12;;;;;;;18.50;7.53;;;16.20;99.90;;;;;;5055567;28;20047;-65
2021/06/30 02:57:39;;;;;;;9.15;6.97;;;16.10;99.90;;;;;;5052363;28;20805;-65
2021/06/30 03:00:10;;;;;;;11.38;7.35;;;16.20;99.90;;;;;;5056167;28;20156;-64
2021/06/30 03:02:37;;;;;;;12.20;7.22;;;16.10;99.90;;;;;;5056873;28;20079;-65
2021/06/30 03:05:05;;;;;;;10.50;7.07;;;16.00;99.90;;;;;;5054868;28;20114;-65
2021/06/30 03:07:34;;;;;;;12.85;8.00;;;16.10;99.90;;;;;;5052288;28;20454;-64
2021/06/30 03:10:01;;;;;;;12.95;7.88;;;15.90;99.90;;;;;;5052802;28;20125;-65
2021/06/30 03:12:28;;;;;;;15.93;8.35;;;16.00;99.90;;;;;;5052293;28;20585;-64
2021/06/30 03:14:55;;;;;;;13.23;8.15;;;16.00;99.90;;;;;;5045384;28;20125;-65
2021/06/30 03:17:22;;;;;;;13.27;7.97;;;16.00;99.90;;;;;;5042679;28;21042;-64
2021/06/30 03:19:49;;;;;;;16.75;8.40;;;16.00;99.90;;;;;;5042519;28;20048;-64
2021/06/30 03:22:16;;;;;;;14.23;8.43;;;16.00;99.90;;;;;;5042153;28;20199;-65
2021/06/30 03:24:44;;;;;;;14.32;8.68;;;16.00;99.90;;;;;;5044477;28;20075;-65
2021/06/30 03:27:11;;;;;;;12.38;8.90;;;15.90;99.90;;;;;;5049266;28;20551;-65
2021/06/30 03:29:38;;;;;;;14.55;9.15;;;15.90;99.90;;;;;;5053509;28;20131;-65
2021/06/30 03:32:06;;;;;;;15.82;9.98;;;15.90;99.90;;;;;;5055278;28;20090;-65
2021/06/30 03:34:33;;;;;;;14.05;8.55;;;15.90;99.90;;;;;;5054242;28;20076;-64
2021/06/30 03:37:00;;;;;;;15.02;8.02;;;16.00;99.90;;;;;;5054383;28;20067;-64
2021/06/30 03:39:27;;;;;;;14.40;9.05;;;16.00;99.90;;;;;;5052127;28;20087;-64
2021/06/30 03:41:55;;;;;;;13.00;8.60;;;16.00;99.90;;;;;;5052243;28;20618;-64
2021/06/30 03:44:22;;;;;;;12.38;8.35;;;16.00;99.90;;;;;;5053535;28;20110;-64
2021/06/30 03:46:50;;;;;;;13.65;7.32;;;16.10;99.90;;;;;;5052211;28;20505;-64
2021/06/30 03:49:17;;;;;;;11.98;7.75;;;16.10;99.90;;;;;;5051785;28;20055;-65
2021/06/30 03:51:44;;;;;;;13.27;7.50;;;16.10;99.90;;;;;;5053729;28;20592;-64
2021/06/30 03:54:11;;;;;;;12.30;7.85;;;16.10;99.90;;;;;;5052828;28;20101;-64
2021/06/30 03:56:38;;;;;;;11.65;7.47;;;16.00;99.90;;;;;;5054226;28;20075;-64
2021/06/30 03:59:06;;;;;;;10.88;6.90;;;16.20;99.90;;;;;;5048865;28;20138;-64
2021/06/30 04:01:33;;;;;;;10.25;7.13;;;16.10;99.90;;;;;;5054695;28;20107;-65
2021/06/30 04:04:01;;;;;;;14.55;7.57;;;16.10;99.90;;;;;;5053202;28;20048;-64
2021/06/30 04:06:28;;;;;;;12.57;7.82;;;15.70;99.90;;;;;;5057230;28;20064;-64
2021/06/30 04:08:55;;;;;;;13.80;8.20;;;16.00;99.90;;;;;;5054963;28;20048;-64
2021/06/30 04:11:22;;;;;;;9.68;7.15;;;16.00;99.90;;;;;;5051503;28;20056;-65
2021/06/30 04:13:49;;;;;;;11.93;7.00;;;16.00;99.90;;;;;;5046291;28;20048;-65
2021/06/30 04:16:17;;;;;;;12.98;7.20;;;16.10;99.90;;;;;;5043361;28;20080;-64
2021/06/30 04:18:44;;;;;;;13.52;7.32;;;16.10;99.90;;;;;;5041460;28;20072;-64
2021/06/30 04:21:11;;;;;;;12.18;6.95;;;15.90;99.90;;;;;;5045574;28;20519;-64
2021/06/30 04:23:38;;;;;;;9.77;6.68;;;15.90;99.90;;;;;;5046734;28;20084;-64
2021/06/30 04:26:05;;;;;;;11.82;6.20;;;15.90;99.90;;;;;;5052990;28;20480;-65
2021/06/30 04:28:32;;;;;;;12.05;6.47;;;15.90;99.90;;;;;;5048865;28;20080;-65
2021/06/30 04:31:00;;;;;;;12.93;7.00;;;16.20;99.90;;;;;;5052070;28;20116;-65
2021/06/30 04:33:30;;;;;;;12.38;6.68;;;16.20;99.90;;;;;;5050969;28;20536;-64
2021/06/30 04:35:58;;;;;;;9.43;6.15;;;16.20;99.90;;;;;;5054288;28;20113;-64
2021/06/30 04:38:25;;;;;;;11.77;6.47;;;16.30;99.90;;;;;;5051032;28;20067;-64
2021/06/30 04:40:52;;;;;;;14.20;6.97;;;16.40;99.90;;;;;;5053737;28;20147;-65
2021/06/30 04:43:20;;;;;;;12.20;6.78;;;16.40;99.90;;;;;;5052625;28;20052;-65
2021/06/30 04:45:47;;;;;;;11.23;6.55;;;16.40;99.90;;;;;;5052691;28;20060;-65
2021/06/30 04:48:14;;;;;;;7.97;5.97;;;16.40;99.90;;;;;;5048689;28;20124;-64
2021/06/30 04:50:43;;;;;;;10.82;5.75;;;16.40;99.90;;;;;;5050495;28;20467;-65
2021/06/30 04:53:10;;;;;;;8.38;6.22;;;16.60;99.90;;;;;;5050226;28;20236;-65
2021/06/30 04:55:37;;;;;;;9.98;6.63;;;16.60;99.90;;;;;;5050643;28;20068;-64
2021/06/30 04:58:07;;;;;;;12.25;5.63;;;16.70;99.90;;;;;;5043319;28;20244;-64
2021/06/30 05:00:34;;;;;;;11.27;5.75;;;16.80;99.90;;;;;;5055359;28;20066;-64
2021/06/30 05:03:01;;;;;;;10.27;5.53;;;16.90;99.90;;;;;;5043943;28;20077;-64
2021/06/30 05:05:28;;;;;;;16.75;5.80;;;16.80;99.90;;;;;;5049082;28;20167;-65
2021/06/30 05:07:56;;;;;;;10.98;5.35;;;16.80;99.90;;;;;;5043382;28;20078;-65
2021/06/30 05:10:24;;;;;;;10.30;5.55;;;16.70;99.90;;;;;;5039889;28;20048;-66
2021/06/30 05:12:51;;;;;;;10.63;5.60;;;16.70;99.90;;;;;;5041243;28;20144;-68
2021/06/30 05:15:18;;;;;;;9.80;4.88;;;16.70;99.90;;;;;;5039539;28;20786;-68
2021/06/30 05:17:45;;;;;;;8.40;4.70;;;16.70;99.90;;;;;;5035443;28;20141;-68
2021/06/30 05:20:13;;;;;;;10.80;5.07;;;16.70;99.90;;;;;;5048097;28;20478;-65
2021/06/30 05:22:40;;;;;;;8.50;4.90;;;16.70;99.90;;;;;;5050934;28;20047;-65
2021/06/30 05:25:15;;;;;;;7.25;4.93;;;16.70;99.90;;;;;;5049413;28;20059;-66
2021/06/30 05:27:53;;;;;;;7.20;4.47;;;16.80;99.90;;;;;;5061278;28;20044;-66
2021/06/30 05:30:20;;;;;;;12.93;5.30;;;16.80;99.90;;;;;;5048971;28;20055;-66
2021/06/30 05:32:47;;;;;;;12.25;5.00;;;16.60;99.90;;;;;;5046021;28;20040;-65
2021/06/30 05:35:22;;;;;;;8.27;4.55;;;16.70;99.90;;;;;;5049929;28;20079;-66
2021/06/30 05:37:55;;;;;;;6.78;4.03;;;16.70;99.90;;;;;;5083710;28;20516;-66
2021/06/30 05:40:24;;;;;;;10.77;4.65;;;16.80;99.90;;;;;;5050501;28;20079;-66
2021/06/30 05:42:51;;;;;;;9.52;3.72;;;16.70;99.90;;;;;;5046053;28;20712;-66
2021/06/30 05:45:19;;;;;;;9.48;4.22;;;16.80;99.90;;;;;;5051174;28;20148;-65
2021/06/30 05:47:47;;;;;;;6.88;4.45;;;16.90;99.90;;;;;;5048593;28;20102;-65
2021/06/30 05:50:15;;;;;;;8.35;4.40;;;16.90;99.90;;;;;;5050275;28;20056;-66
2021/06/30 05:52:42;;;;;;;12.30;4.68;;;16.90;99.90;;;;;;5050626;28;20129;-65
2021/06/30 05:55:11;;;;;;;10.55;4.90;;;17.00;99.90;;;;;;5046867;28;20552;-65
2021/06/30 05:57:41;;;;;;;6.90;3.80;;;17.10;99.90;;;;;;5048615;28;20082;-66
2021/06/30 06:00:11;;;;;;;8.57;4.20;;;17.10;99.90;;;;;;5054312;28;20548;-70
2021/06/30 06:02:38;;;;;;;7.55;3.58;;;17.10;99.90;;;;;;5047716;28;20550;-68
2021/06/30 06:05:06;;;;;;;8.98;3.85;;;17.20;99.90;;;;;;5049435;28;20084;-69
2021/06/30 06:07:33;;;;;;;7.53;3.65;;;17.30;99.90;;;;;;5050614;28;20108;-68
2021/06/30 06:10:00;;;;;;;8.27;4.20;;;17.40;99.90;;;;;;5051160;28;20047;-70
2021/06/30 06:12:28;;;;;;;8.05;3.72;;;17.40;99.90;;;;;;5051308;28;20055;-71
2021/06/30 06:14:56;;;;;;;6.97;3.45;;;17.70;99.90;;;;;;5050344;28;20494;-66
2021/06/30 06:17:23;;;;;;;6.93;3.97;;;17.70;99.90;;;;;;5052001;28;20129;-69
2021/06/30 06:19:50;;;;;;;6.10;4.20;;;17.70;99.90;;;;;;5048012;28;20052;-70
2021/06/30 06:22:18;;;;;;;5.93;3.58;;;17.60;99.90;;;;;;5048488;28;20049;-69
2021/06/30 06:24:45;;;;;;;8.73;4.10;;;17.80;99.90;;;;;;5049382;28;20059;-69
2021/06/30 06:27:12;;;;;;;7.97;3.90;;;17.60;99.90;;;;;;5048024;28;20553;-69
2021/06/30 06:29:40;;;;;;;9.90;3.88;;;17.70;99.90;;;;;;5050997;28;20204;-70
2021/06/30 06:32:09;;;;;;;8.95;3.72;;;17.70;99.90;;;;;;5047336;28;20102;-71
2021/06/30 06:34:36;;;;;;;6.65;3.75;;;17.70;99.90;;;;;;5048685;28;20048;-71
2021/06/30 06:37:04;;;;;;;7.13;3.67;;;17.70;99.90;;;;;;5049555;28;20135;-70
2021/06/30 06:39:32;;;;;;;9.15;3.70;;;17.80;99.90;;;;;;5048262;28;20105;-70
2021/06/30 06:42:01;;;;;;;14.65;4.75;;;17.80;99.90;;;;;;5050363;28;20048;-70
2021/06/30 06:44:31;;;;;;;8.93;3.83;;;18.00;99.90;;;;;;5051009;28;20625;-71
2021/06/30 06:46:58;;;;;;;8.35;4.00;;;18.00;99.90;;;;;;5050089;28;20075;-68
2021/06/30 06:49:26;;;;;;;7.38;4.35;;;18.00;99.90;;;;;;5047750;28;20102;-72
2021/06/30 06:51:53;;;;;;;7.55;3.95;;;18.00;99.90;;;;;;5053154;28;20080;-73
2021/06/30 06:54:20;;;;;;;8.02;4.13;;;17.80;99.90;;;;;;5054866;28;20106;-72
2021/06/30 06:56:47;;;;;;;7.75;4.07;;;17.70;99.90;;;;;;5051450;28;20044;-72
2021/06/30 06:59:14;;;;;;;7.32;3.92;;;17.70;99.90;;;;;;5055183;28;20048;-72
2021/06/30 07:01:41;;;;;;;5.72;3.83;;;17.80;99.90;;;;;;5053133;28;20124;-72
2021/06/30 07:04:08;;;;;;;7.18;3.80;;;17.90;99.90;;;;;;5051092;28;20071;-69
2021/06/30 07:06:37;;;;;;;11.13;4.03;;;17.80;99.90;;;;;;5054186;28;20155;-72
2021/06/30 07:09:05;;;;;;;6.72;3.35;;;17.60;99.90;;;;;;5052458;28;21090;-70
2021/06/30 07:11:32;;;;;;;6.53;3.75;;;17.60;99.90;;;;;;5051391;28;20140;-71
2021/06/30 07:13:59;;;;;;;7.85;3.72;;;17.60;99.90;;;;;;5051585;28;20072;-72
2021/06/30 07:16:26;;;;;;;4.97;3.40;;;17.60;99.90;;;;;;5053561;28;20510;-73
2021/06/30 07:18:53;;;;;;;7.05;3.28;;;17.70;99.90;;;;;;5051096;28;21750;-70
2021/06/30 07:21:20;;;;;;;6.78;3.63;;;17.80;99.90;;;;;;5048075;28;20052;-70
2021/06/30 07:23:49;;;;;;;9.48;3.47;;;17.80;99.90;;;;;;5047662;28;20055;-73
2021/06/30 07:26:19;;;;;;;6.47;3.47;;;17.80;99.90;;;;;;5049332;28;20528;-72
2021/06/30 07:28:46;;;;;;;8.55;3.20;;;17.70;99.90;;;;;;5050602;28;20048;-73
2021/06/30 07:31:13;;;;;;;7.82;3.33;;;17.60;99.90;;;;;;5051444;28;20044;-73
2021/06/30 07:33:41;;;;;;;6.03;3.60;;;17.60;99.90;;;;;;5052785;28;20043;-75
2021/06/30 07:36:10;;;;;;;5.57;3.83;;;17.50;99.90;;;;;;5053853;28;20431;-77
2021/06/30 07:38:37;;;;;;;8.55;4.00;;;17.30;99.90;;;;;;5056756;28;20056;-72
2021/06/30 07:41:06;;;;;;;6.40;4.07;;;17.30;99.90;;;;;;5056089;28;20060;-71
2021/06/30 07:43:33;;;;;;;6.35;3.47;;;17.10;99.90;;;;;;5053525;28;20094;-68
2021/06/30 07:46:00;;;;;;;7.20;4.00;;;17.10;99.90;;;;;;5051873;28;20145;-70
2021/06/30 07:48:27;;;;;;;7.35;3.75;;;17.10;99.90;;;;;;5050975;28;20135;-71
2021/06/30 07:50:53;;;;;;;5.70;3.10;;;17.20;99.90;;;;;;5058156;28;20080;-71
2021/06/30 07:53:20;;;;;;;6.25;3.10;;;17.00;99.90;;;;;;5057035;28;20068;-72
2021/06/30 07:55:47;;;;;;;4.25;2.85;;;17.10;99.90;;;;;;5054514;28;20051;-69
2021/06/30 07:58:18;;;;;;;5.90;3.17;;;17.10;99.90;;;;;;5052715;28;20561;-69
2021/06/30 08:00:45;;;;;;;9.40;3.88;;;16.70;99.90;;;;;;5055420;28;20044;-71
2021/06/30 08:03:12;;;;;;;10.30;3.65;;;16.70;99.90;;;;;;5051645;28;20048;-72
2021/06/30 08:05:39;;;;;;;6.90;4.15;;;16.80;99.90;;;;;;5048604;28;20044;-70
2021/06/30 08:08:06;;;;;;;5.55;3.85;;;17.00;99.90;;;;;;5048412;28;20083;-70
2021/06/30 08:10:33;;;;;;;8.00;4.05;;;17.20;99.90;;;;;;5051499;28;20141;-71
2021/06/30 08:13:00;;;;;;;5.35;3.60;;;17.50;99.90;;;;;;5051902;28;20143;-71
2021/06/30 08:15:29;;;;;;;9.60;3.70;;;17.70;99.90;;;;;;5049439;28;21496;-69
2021/06/30 08:17:56;;;;;;;6.25;3.15;;;17.70;99.90;;;;;;5051638;28;20121;-71
2021/06/30 08:20:23;;;;;;;6.03;3.22;;;17.70;99.90;;;;;;5053896;28;20097;-70
2021/06/30 08:22:51;;;;;;;4.50;2.78;;;17.70;99.90;;;;;;5050913;28;20059;-71
2021/06/30 08:25:19;;;;;;;5.32;2.70;;;17.90;99.90;;;;;;5053074;28;20044;-71
2021/06/30 08:27:53;;;;;;;4.80;2.72;;;18.40;99.90;;;;;;5050003;28;20146;-67
2021/06/30 08:30:20;;;;;;;9.80;2.90;;;18.50;99.90;;;;;;5053297;28;20056;-67
2021/06/30 08:32:49;;;;;;;2.63;2.28;;;18.40;99.90;;;;;;5054876;28;20101;-67
2021/06/30 08:35:16;;;;;;;5.63;2.85;;;18.30;99.90;;;;;;5053277;28;20064;-67
2021/06/30 08:37:46;;;;;;;3.92;2.42;;;18.50;99.90;;;;;;5049667;28;20219;-67
2021/06/30 08:40:14;;;;;;;5.03;2.10;;;18.70;99.90;;;;;;5051384;28;20716;-67
2021/06/30 08:42:43;;;;;;;3.70;2.03;;;18.90;99.90;;;;;;5053587;28;20083;-67
2021/06/30 08:45:11;;;;;;;4.35;2.40;;;18.70;99.90;;;;;;5050029;28;20105;-67
2021/06/30 08:47:40;;;;;;;2.70;2.33;;;18.10;99.90;;;;;;5050876;28;20055;-67
2021/06/30 08:50:11;;;;;;;5.53;2.30;;;17.80;99.90;;;;;;5051756;28;20147;-66
2021/06/30 08:52:38;;;;;;;4.10;2.60;;;17.90;99.90;;;;;;5052099;28;20047;-67
2021/06/30 08:55:08;;;;;;;4.40;2.72;;;17.90;99.90;;;;;;5052925;28;20488;-67
2021/06/30 08:57:37;;;;;;;2.92;2.42;;;17.60;99.90;;;;;;5049612;28;20152;-67
2021/06/30 09:00:05;;;;;;;2.85;2.00;;;17.80;99.90;;;;;;5050971;28;20139;-67
2021/06/30 09:02:32;;;;;;;5.38;2.30;;;18.00;99.90;;;;;;5049651;28;20080;-67
2021/06/30 09:05:12;;;;;;;4.38;2.38;;;17.90;99.90;;;;;;5052103;28;20113;-67
2021/06/30 09:07:41;;;;;;;3.50;2.40;;;17.80;99.90;;;;;;5052198;28;20110;-67
2021/06/30 09:10:09;;;;;;;2.90;2.22;;;17.60;99.90;;;;;;5051732;28;20163;-67
2021/06/30 09:12:38;;;;;;;3.85;2.80;;;17.60;99.90;;;;;;5059166;28;20048;-67
2021/06/30 09:15:16;;;;;;;3.85;2.38;;;17.50;99.90;;;;;;5051727;28;20056;-69
2021/06/30 09:17:45;;;;;;;7.80;2.78;;;17.50;99.90;;;;;;5051277;28;20097;-70
2021/06/30 09:20:13;;;;;;;4.35;2.53;;;17.60;99.90;;;;;;5052367;28;20520;-70
2021/06/30 09:22:52;;;;;;;4.20;1.92;;;17.60;99.90;;;;;;5054116;28;20126;-69
2021/06/30 09:25:33;;;;;;;4.00;2.47;;;17.40;99.90;;;;;;5052997;28;20075;-69
2021/06/30 09:28:12;;;;;;;4.47;1.98;;;17.40;99.90;;;;;;5050918;28;20055;-71
2021/06/30 09:30:55;;;;;;;3.67;2.13;;;17.40;99.90;;;;;;5053242;28;20056;-70
2021/06/30 09:33:22;;;;;;;2.38;2.00;;;17.50;99.90;;;;;;5051553;28;20105;-68
2021/06/30 09:36:02;;;;;;;3.70;1.95;;;17.90;99.90;;;;;;5050290;28;20123;-68
2021/06/30 09:38:32;;;;;;;2.70;1.40;;;18.40;99.90;;;;;;5055473;28;20052;-68
2021/06/30 09:41:00;;;;;;;5.75;1.48;;;18.30;99.90;;;;;;5054451;28;20052;-68
2021/06/30 09:43:29;;;;;;;5.10;1.50;;;18.50;99.90;;;;;;5044929;28;20121;-68
2021/06/30 09:45:58;;;;;;;1.67;1.15;;;18.60;99.90;;;;;;5047700;28;20486;-68
2021/06/30 09:48:32;;;;;;;3.30;1.23;;;19.00;99.90;;;;;;5042135;28;20113;-68
2021/06/30 09:50:59;;;;;;;2.88;1.10;;;19.10;99.90;;;;;;5045055;28;20044;-68
2021/06/30 09:53:39;;;;;;;2.25;1.05;;;19.10;99.90;;;;;;5043752;28;20517;-68
2021/06/30 09:56:14;;;;;;;3.72;1.20;;;19.70;99.90;;;;;;5047985;28;20152;-68
2021/06/30 09:58:42;;;;;;;6.18;1.40;;;21.10;99.90;;;;;;5045246;28;20052;-69
2021/06/30 10:01:16;;;;;;;3.25;1.00;;;21.80;99.90;;;;;;5047562;28;20052;-68
2021/06/30 10:03:44;;;;;;;1.52;0.95;;;21.30;99.90;;;;;;5048935;28;20079;-68
2021/06/30 10:06:29;;;;;;;2.67;1.15;;;20.20;99.90;;;;;;5049780;28;20504;-68
2021/06/30 10:08:59;;;;;;;4.57;0.90;;;19.70;99.90;;;;;;5046288;28;20123;-68
2021/06/30 10:11:26;;;;;;;4.20;1.00;;;19.80;99.90;;;;;;5048920;28;20083;-68
2021/06/30 10:13:55;;;;;;;1.10;0.63;;;20.00;99.90;;;;;;5051686;28;20055;-68
2021/06/30 10:16:22;;;;;;;1.55;0.88;;;20.80;99.90;;;;;;5046077;28;20048;-68
2021/06/30 10:18:52;;;;;;;1.00;0.77;;;20.90;99.90;;;;;;5054243;28;20051;-68
2021/06/30 10:21:20;;;;;;;1.58;0.98;;;21.80;99.90;;;;;;5051203;28;20143;-68
2021/06/30 10:23:49;;;;;;;1.50;1.10;;;21.20;99.90;;;;;;5050151;28;20076;-68
2021/06/30 10:26:20;;;;;;;2.45;1.00;;;20.60;99.90;;;;;;5048046;28;20052;-68
2021/06/30 10:28:49;;;;;;;3.58;1.10;;;20.40;99.90;;;;;;5048990;28;20052;-68
2021/06/30 10:31:17;;;;;;;2.47;0.70;;;20.00;99.90;;;;;;5046244;28;20058;-68
2021/06/30 10:33:56;;;;;;;1.02;0.82;;;20.00;99.90;;;;;;5045606;28;20200;-68
2021/06/30 10:36:46;;;;;;;2.83;0.85;;;20.30;99.90;;;;;;5047680;28;20151;-68
2021/06/30 10:39:15;;;;;;;0.70;0.70;;;20.40;99.90;;;;;;5047153;28;20079;-68
2021/06/30 10:41:50;;;;;;;2.90;0.82;;;20.20;99.90;;;;;;5039725;28;20079;-68
2021/06/30 10:44:19;;;;;;;0.75;0.68;;;19.90;99.90;;;;;;5041165;28;20076;-68
2021/06/30 10:46:46;;;;;;;1.02;0.88;;;19.90;99.90;;;;;;5044865;28;20576;-68
2021/06/30 10:49:22;;;;;;;1.90;0.70;;;20.00;99.90;;;;;;5044019;28;21190;-68
2021/06/30 10:51:51;;;;;;;0.93;0.68;;;20.90;99.90;;;;;;5044974;28;20171;-68
2021/06/30 10:54:45;;;;;;;1.77;0.82;;;21.30;99.90;;;;;;5037350;28;20047;-68
2021/06/30 10:57:31;;;;;;;1.60;0.70;;;21.80;99.90;;;;;;5041291;28;20052;-68
2021/06/30 11:00:17;;;;;;;1.45;0.60;;;21.90;99.90;;;;;;5049600;28;20612;-68
2021/06/30 11:02:45;;;;;;;1.95;0.90;;;21.70;99.90;;;;;;5049699;28;20044;-68
2021/06/30 11:05:33;;;;;;;4.93;0.70;;;22.30;99.90;;;;;;5042310;28;20433;-68
2021/06/30 11:08:00;;;;;;;2.33;0.57;;;22.10;99.90;;;;;;5045665;28;20043;-68
2021/06/30 11:10:53;;;;;;;1.05;0.50;;;22.80;99.90;;;;;;5043535;28;20074;-69
2021/06/30 11:13:21;;;;;;;1.00;0.60;;;23.50;99.90;;;;;;5046438;28;20056;-69
2021/06/30 11:15:48;;;;;;;0.98;0.52;;;24.20;99.90;;;;;;5050244;28;20480;-69
2021/06/30 11:18:52;;;;;;;1.33;0.50;;;24.70;99.90;;;;;;5046796;28;20052;-69
2021/06/30 11:21:43;;;;;;;0.63;0.40;;;23.80;99.90;;;;;;5050131;28;20057;-68
2021/06/30 11:24:45;;;;;;;0.40;0.35;;;23.80;99.90;;;;;;5049638;28;20045;-68
2021/06/30 11:27:54;;;;;;;0.68;0.43;;;22.20;99.90;;;;;;5050585;28;20173;-69
2021/06/30 11:30:35;;;;;;;1.48;0.60;;;22.10;99.90;;;;;;5051425;28;20079;-68
2021/06/30 11:33:03;;;;;;;0.45;0.45;;;21.70;99.90;;;;;;5052888;28;20075;-68
2021/06/30 11:35:37;;;;;;;0.47;0.32;;;21.20;99.90;;;;;;5051016;28;20560;-68
2021/06/30 11:38:14;;;;;;;1.10;0.40;;;21.20;99.90;;;;;;5052258;28;20052;-68
2021/06/30 11:40:47;;;;;;;0.52;0.47;;;21.60;99.90;;;;;;5051609;28;20051;-69
2021/06/30 11:43:18;;;;;;;0.60;0.50;;;21.30;99.90;;;;;;5050425;28;20057;-68
2021/06/30 11:45:46;;;;;;;0.30;0.25;;;21.60;99.90;;;;;;5052660;28;20093;-68
2021/06/30 11:48:15;;;;;;;1.17;0.80;;;22.30;99.90;;;;;;5049958;28;20088;-68
2021/06/30 11:50:48;;;;;;;1.85;0.50;;;22.60;99.90;;;;;;5052999;28;20505;-68
2021/06/30 11:53:15;;;;;;;0.65;0.40;;;22.90;99.90;;;;;;5051407;28;20181;-68
2021/06/30 11:55:44;;;;;;;1.05;0.40;;;23.20;99.90;;;;;;5056016;28;20047;-69
2021/06/30 11:58:11;;;;;;;0.63;0.38;;;23.40;99.90;;;;;;5057438;28;20079;-69
2021/06/30 12:00:42;;;;;;;1.42;0.45;;;23.40;99.90;;;;;;5056302;28;20079;-69
2021/06/30 12:03:11;;;;;;;1.88;0.52;;;23.70;99.90;;;;;;5052077;28;20048;-69
2021/06/30 12:05:40;;;;;;;4.45;0.55;;;23.90;99.90;;;;;;5051449;28;20105;-69
2021/06/30 12:08:09;;;;;;;2.03;0.50;;;23.60;99.90;;;;;;5049654;28;20063;-69
2021/06/30 12:10:40;;;;;;;0.95;0.50;;;23.40;99.90;;;;;;5052381;28;20048;-68
2021/06/30 12:13:11;;;;;;;0.57;0.30;;;22.80;99.90;;;;;;5052544;28;20091;-69
2021/06/30 12:15:43;;;;;;;0.73;0.40;;;22.60;99.90;;;;;;5052115;28;20043;-69
2021/06/30 12:18:12;;;;;;;0.40;0.40;;;22.60;99.90;;;;;;5052115;28;20499;-69
2021/06/30 12:20:39;;;;;;;0.88;0.45;;;22.50;99.90;;;;;;5054310;28;20047;-69
2021/06/30 12:23:06;;;;;;;3.80;0.40;;;22.20;99.90;;;;;;5054407;28;20056;-69
2021/06/30 12:25:35;;;;;;;0.43;0.30;;;22.00;99.90;;;;;;5055781;28;20048;-68
2021/06/30 12:28:05;;;;;;;0.60;0.55;;;21.80;99.90;;;;;;5051936;28;20060;-69
2021/06/30 12:30:35;;;;;;;0.47;0.40;;;21.70;99.90;;;;;;5054511;28;20143;-68
2021/06/30 12:33:08;;;;;;;1.95;0.47;;;21.50;99.90;;;;;;5053266;28;20052;-68
2021/06/30 12:35:39;;;;;;;2.58;0.60;;;21.70;99.90;;;;;;5054655;28;20093;-68
2021/06/30 12:38:09;;;;;;;1.73;0.40;;;21.90;99.90;;;;;;5050882;28;20088;-68
2021/06/30 12:40:38;;;;;;;2.08;0.30;;;21.70;99.90;;;;;;5054962;28;20487;-69
2021/06/30 12:43:15;;;;;;;0.70;0.40;;;21.40;99.90;;;;;;5055402;28;21509;-68
2021/06/30 12:45:45;;;;;;;0.35;0.30;;;21.50;99.90;;;;;;5052199;28;20047;-69
2021/06/30 12:48:16;;;;;;;1.02;0.45;;;21.40;99.90;;;;;;5053453;28;20056;-69
2021/06/30 12:50:46;;;;;;;1.25;0.40;;;21.50;99.90;;;;;;5054312;28;20139;-68
2021/06/30 12:53:15;;;;;;;7.88;0.50;;;21.60;99.90;;;;;;5052544;28;20048;-70